DLH99H EDDM-LFMN
Flight info
| Callsign | DLH99H |
|---|---|
| Flight time | 1h 6m |
| Altitude | 35000 |
| Route | TURBU6E/08R TURBU Y107 TOBSO DCT BAKOR DCT RENTA DCT ATPED DCT LUSIL DCT EVANO DCT ENOBA Z185 ASBOP/N0385F190 Z185 BORDI |
| Aircraft | A320/M-SDE3FGHIRWY/LB1 |
Departure
| Time | 2026-05-01 07:35 |
|---|---|
| Airport | Munich Airport (EDDM) |
Arrival
| Time | 2026-05-01 08:41 |
|---|---|
| Airport | Nice-Côte d'Azur Airport (LFMN) |
| Time | Latitude | Longitude | Altitude | Speed | Heading |
|---|---|---|---|---|---|
| 2026-05-01 07:23 | 48.35351 | 11.79304 | 1467 ft | 0 kts | 261° |
| 2026-05-01 07:23 | 48.35351 | 11.79309 | 1467 ft | 2 kts | 261° |
| 2026-05-01 07:24 | 48.35355 | 11.79333 | 1456 ft | 2 kts | 262° |
| 2026-05-01 07:24 | 48.35358 | 11.79357 | 1461 ft | 2 kts | 259° |
| 2026-05-01 07:24 | 48.35361 | 11.79381 | 1456 ft | 2 kts | 254° |
| 2026-05-01 07:24 | 48.35366 | 11.79405 | 1459 ft | 2 kts | 251° |
| 2026-05-01 07:25 | 48.35371 | 11.79428 | 1458 ft | 2 kts | 244° |
| 2026-05-01 07:25 | 48.35379 | 11.79449 | 1456 ft | 2 kts | 226° |
| 2026-05-01 07:25 | 48.35393 | 11.79464 | 1460 ft | 2 kts | 180° |
| 2026-05-01 07:25 | 48.35400 | 11.79463 | 1459 ft | 0 kts | 173° |
| 2026-05-01 07:28 | 48.35374 | 11.79468 | 1462 ft | 12 kts | 173° |
| 2026-05-01 07:28 | 48.35286 | 11.79484 | 1459 ft | 14 kts | 173° |
| 2026-05-01 07:28 | 48.35187 | 11.79501 | 1458 ft | 15 kts | 173° |
| 2026-05-01 07:28 | 48.35077 | 11.79520 | 1462 ft | 17 kts | 173° |
| 2026-05-01 07:29 | 48.34957 | 11.79541 | 1464 ft | 18 kts | 173° |
| 2026-05-01 07:29 | 48.34836 | 11.79561 | 1467 ft | 14 kts | 176° |
| 2026-05-01 07:29 | 48.34782 | 11.79466 | 1460 ft | 13 kts | 264° |
| 2026-05-01 07:29 | 48.34773 | 11.79342 | 1467 ft | 11 kts | 264° |
| 2026-05-01 07:30 | 48.34764 | 11.79222 | 1463 ft | 17 kts | 263° |
| 2026-05-01 07:30 | 48.34745 | 11.78974 | 1467 ft | 26 kts | 263° |
| 2026-05-01 07:30 | 48.34723 | 11.78716 | 1457 ft | 24 kts | 263° |
| 2026-05-01 07:30 | 48.34706 | 11.78479 | 1467 ft | 22 kts | 264° |
| 2026-05-01 07:31 | 48.34690 | 11.78264 | 1465 ft | 20 kts | 263° |
| 2026-05-01 07:31 | 48.34629 | 11.77474 | 1466 ft | 30 kts | 263° |
| 2026-05-01 07:32 | 48.34581 | 11.76846 | 1463 ft | 31 kts | 263° |
| 2026-05-01 07:32 | 48.34556 | 11.76520 | 1466 ft | 32 kts | 263° |
| 2026-05-01 07:33 | 48.34503 | 11.75835 | 1466 ft | 34 kts | 263° |
| 2026-05-01 07:33 | 48.34477 | 11.75494 | 1462 ft | 31 kts | 263° |
| 2026-05-01 07:33 | 48.34410 | 11.75215 | 1458 ft | 10 kts | 191° |
| 2026-05-01 07:34 | 48.34346 | 11.75219 | 1457 ft | 9 kts | 174° |
| 2026-05-01 07:34 | 48.34132 | 11.75261 | 1461 ft | 18 kts | 159° |
| 2026-05-01 07:34 | 48.34090 | 11.75419 | 1474 ft | 29 kts | 84° |
| 2026-05-01 07:35 | 48.34147 | 11.76152 | 1468 ft | 112 kts | 83° |
| 2026-05-01 07:35 | 48.34247 | 11.77631 | 1672 ft | 158 kts | 86° |
| 2026-05-01 07:35 | 48.34349 | 11.79276 | 2612 ft | 159 kts | 85° |
| 2026-05-01 07:35 | 48.34476 | 11.80957 | 3328 ft | 168 kts | 86° |
| 2026-05-01 07:36 | 48.34619 | 11.82807 | 3681 ft | 189 kts | 86° |
| 2026-05-01 07:36 | 48.34780 | 11.84869 | 4034 ft | 209 kts | 85° |
| 2026-05-01 07:36 | 48.34959 | 11.87131 | 4651 ft | 223 kts | 85° |
| 2026-05-01 07:36 | 48.35144 | 11.89480 | 5491 ft | 230 kts | 85° |
| 2026-05-01 07:37 | 48.35344 | 11.94364 | 7073 ft | 242 kts | 102° |
| 2026-05-01 07:37 | 48.34930 | 11.95956 | 7278 ft | 244 kts | 121° |
| 2026-05-01 07:37 | 48.33738 | 11.97770 | 7366 ft | 247 kts | 140° |
| 2026-05-01 07:38 | 48.32372 | 11.99347 | 7541 ft | 251 kts | 140° |
| 2026-05-01 07:38 | 48.30989 | 12.00937 | 8443 ft | 251 kts | 141° |
| 2026-05-01 07:38 | 48.27587 | 12.02710 | 9834 ft | 282 kts | 176° |
| 2026-05-01 07:39 | 48.25602 | 12.02584 | 10447 ft | 294 kts | 180° |
| 2026-05-01 07:39 | 48.23511 | 12.02438 | 11179 ft | 300 kts | 179° |
| 2026-05-01 07:39 | 48.19279 | 12.02180 | 12678 ft | 309 kts | 179° |
| 2026-05-01 07:40 | 48.17118 | 12.02055 | 13420 ft | 313 kts | 179° |
| 2026-05-01 07:40 | 48.14950 | 12.01930 | 14147 ft | 318 kts | 179° |
| 2026-05-01 07:40 | 48.12695 | 12.01802 | 14821 ft | 322 kts | 178° |
| 2026-05-01 07:40 | 48.10442 | 12.01674 | 15468 ft | 327 kts | 178° |
| 2026-05-01 07:41 | 48.08150 | 12.01534 | 16123 ft | 331 kts | 180° |
| 2026-05-01 07:41 | 48.05838 | 12.00973 | 16595 ft | 347 kts | 191° |
| 2026-05-01 07:41 | 48.00911 | 11.98918 | 16874 ft | 387 kts | 192° |
| 2026-05-01 07:42 | 47.98262 | 11.97795 | 17112 ft | 402 kts | 192° |
| 2026-05-01 07:42 | 47.95552 | 11.96640 | 17624 ft | 408 kts | 192° |
| 2026-05-01 07:42 | 47.92798 | 11.95491 | 18193 ft | 411 kts | 189° |
| 2026-05-01 07:42 | 47.90016 | 11.94859 | 18740 ft | 410 kts | 179° |
| 2026-05-01 07:43 | 47.87163 | 11.94777 | 19222 ft | 412 kts | 176° |
| 2026-05-01 07:43 | 47.84286 | 11.94734 | 19720 ft | 415 kts | 176° |
| 2026-05-01 07:43 | 47.78454 | 11.94643 | 20698 ft | 423 kts | 176° |
| 2026-05-01 07:44 | 47.72520 | 11.94538 | 21622 ft | 430 kts | 176° |
| 2026-05-01 07:44 | 47.66484 | 11.94421 | 22552 ft | 437 kts | 176° |
| 2026-05-01 07:45 | 47.63429 | 11.94364 | 23007 ft | 441 kts | 176° |
| 2026-05-01 07:45 | 47.60345 | 11.94311 | 23443 ft | 444 kts | 176° |
| 2026-05-01 07:45 | 47.57237 | 11.94257 | 23853 ft | 448 kts | 176° |
| 2026-05-01 07:45 | 47.54106 | 11.94201 | 24206 ft | 452 kts | 176° |
| 2026-05-01 07:46 | 47.50951 | 11.94140 | 24557 ft | 455 kts | 176° |
| 2026-05-01 07:46 | 47.47778 | 11.94079 | 24898 ft | 457 kts | 176° |
| 2026-05-01 07:46 | 47.41370 | 11.93666 | 25594 ft | 467 kts | 184° |
| 2026-05-01 07:47 | 47.38143 | 11.93019 | 25935 ft | 469 kts | 184° |
| 2026-05-01 07:47 | 47.34903 | 11.92369 | 26293 ft | 472 kts | 184° |
| 2026-05-01 07:47 | 47.31636 | 11.91716 | 26630 ft | 474 kts | 184° |
| 2026-05-01 07:47 | 47.28357 | 11.91061 | 26952 ft | 477 kts | 184° |
| 2026-05-01 07:48 | 47.21742 | 11.89742 | 27620 ft | 482 kts | 184° |
| 2026-05-01 07:48 | 47.18409 | 11.89083 | 27928 ft | 485 kts | 184° |
| 2026-05-01 07:48 | 47.15056 | 11.88424 | 28260 ft | 487 kts | 184° |
| 2026-05-01 07:49 | 47.11689 | 11.87764 | 28577 ft | 489 kts | 184° |
| 2026-05-01 07:49 | 47.04899 | 11.86420 | 29194 ft | 494 kts | 184° |
| 2026-05-01 07:49 | 47.01482 | 11.85729 | 29505 ft | 497 kts | 185° |
| 2026-05-01 07:50 | 46.98063 | 11.84888 | 29769 ft | 500 kts | 188° |
| 2026-05-01 07:50 | 46.91239 | 11.82708 | 30406 ft | 503 kts | 191° |
| 2026-05-01 07:50 | 46.87833 | 11.81506 | 30728 ft | 503 kts | 191° |
| 2026-05-01 07:51 | 46.84432 | 11.80314 | 31057 ft | 502 kts | 190° |
| 2026-05-01 07:51 | 46.81023 | 11.79161 | 31318 ft | 503 kts | 190° |
| 2026-05-01 07:51 | 46.77609 | 11.78057 | 31672 ft | 503 kts | 189° |
| 2026-05-01 07:52 | 46.70749 | 11.75926 | 32166 ft | 505 kts | 190° |
| 2026-05-01 07:52 | 46.67383 | 11.74402 | 32477 ft | 509 kts | 201° |
| 2026-05-01 07:52 | 46.64218 | 11.72086 | 32743 ft | 510 kts | 212° |
| 2026-05-01 07:53 | 46.58913 | 11.65315 | 33352 ft | 508 kts | 233° |
| 2026-05-01 07:53 | 46.56896 | 11.61137 | 33627 ft | 504 kts | 243° |
| 2026-05-01 07:53 | 46.55286 | 11.56634 | 33930 ft | 501 kts | 248° |
| 2026-05-01 07:53 | 46.53720 | 11.52104 | 34229 ft | 501 kts | 247° |
| 2026-05-01 07:54 | 46.50570 | 11.43090 | 34851 ft | 500 kts | 247° |
| 2026-05-01 07:55 | 46.45860 | 11.29668 | 35364 ft | 496 kts | 246° |
| 2026-05-01 07:56 | 46.38055 | 11.07471 | 35358 ft | 494 kts | 246° |
| 2026-05-01 07:57 | 46.33342 | 10.94201 | 35358 ft | 494 kts | 246° |
| 2026-05-01 07:58 | 46.27098 | 10.76518 | 35364 ft | 492 kts | 247° |
| 2026-05-01 07:59 | 46.20990 | 10.58868 | 35372 ft | 490 kts | 246° |
| 2026-05-01 08:00 | 46.11716 | 10.32565 | 35358 ft | 489 kts | 246° |
| 2026-05-01 08:01 | 46.05557 | 10.15180 | 35393 ft | 488 kts | 246° |
| 2026-05-01 08:02 | 45.99889 | 10.02983 | 35403 ft | 490 kts | 236° |
| 2026-05-01 08:03 | 45.93835 | 9.91133 | 35378 ft | 490 kts | 236° |
| 2026-05-01 08:03 | 45.87791 | 9.79345 | 35419 ft | 487 kts | 236° |
| 2026-05-01 08:04 | 45.79747 | 9.63742 | 35405 ft | 486 kts | 236° |
| 2026-05-01 08:05 | 45.73715 | 9.52079 | 35412 ft | 485 kts | 236° |
| 2026-05-01 08:06 | 45.67679 | 9.40464 | 35244 ft | 484 kts | 235° |
| 2026-05-01 08:06 | 45.63668 | 9.32768 | 35423 ft | 482 kts | 235° |
| 2026-05-01 08:07 | 45.59659 | 9.25115 | 35427 ft | 481 kts | 235° |
| 2026-05-01 08:08 | 45.53650 | 9.13676 | 35421 ft | 479 kts | 235° |
| 2026-05-01 08:09 | 45.45630 | 8.98456 | 35412 ft | 478 kts | 234° |
| 2026-05-01 08:09 | 45.41637 | 8.90902 | 35394 ft | 476 kts | 234° |
| 2026-05-01 08:10 | 45.32893 | 8.77032 | 35402 ft | 475 kts | 214° |
| 2026-05-01 08:11 | 45.26940 | 8.73027 | 35396 ft | 475 kts | 198° |
| 2026-05-01 08:11 | 45.20804 | 8.69400 | 35398 ft | 474 kts | 204° |
| 2026-05-01 08:12 | 45.12076 | 8.62986 | 35394 ft | 473 kts | 209° |
| 2026-05-01 08:13 | 45.03412 | 8.56189 | 35385 ft | 473 kts | 210° |
| 2026-05-01 08:13 | 44.94756 | 8.49502 | 35397 ft | 472 kts | 209° |
| 2026-05-01 08:14 | 44.89020 | 8.45115 | 35392 ft | 472 kts | 209° |
| 2026-05-01 08:14 | 44.83251 | 8.40717 | 35384 ft | 472 kts | 209° |
| 2026-05-01 08:15 | 44.74593 | 8.34127 | 35376 ft | 471 kts | 209° |
| 2026-05-01 08:16 | 44.68834 | 8.29746 | 35381 ft | 470 kts | 210° |
| 2026-05-01 08:16 | 44.64024 | 8.26084 | 35386 ft | 470 kts | 209° |
| 2026-05-01 08:17 | 44.57343 | 8.21018 | 35383 ft | 469 kts | 209° |
| 2026-05-01 08:17 | 44.52530 | 8.17381 | 35381 ft | 469 kts | 209° |
| 2026-05-01 08:18 | 44.46791 | 8.13051 | 35373 ft | 468 kts | 209° |
| 2026-05-01 08:18 | 44.41052 | 8.08718 | 35249 ft | 469 kts | 209° |
| 2026-05-01 08:19 | 44.35294 | 8.04399 | 34756 ft | 470 kts | 208° |
| 2026-05-01 08:19 | 44.32407 | 8.02242 | 34515 ft | 470 kts | 209° |
| 2026-05-01 08:19 | 44.29520 | 8.00080 | 34242 ft | 471 kts | 208° |
| 2026-05-01 08:19 | 44.26628 | 7.97912 | 33676 ft | 472 kts | 208° |
| 2026-05-01 08:20 | 44.23709 | 7.95725 | 32498 ft | 480 kts | 208° |
| 2026-05-01 08:20 | 44.20782 | 7.93535 | 31943 ft | 474 kts | 208° |
| 2026-05-01 08:20 | 44.17879 | 7.91372 | 31272 ft | 471 kts | 208° |
| 2026-05-01 08:20 | 44.14998 | 7.89236 | 30608 ft | 468 kts | 208° |
| 2026-05-01 08:21 | 44.12134 | 7.87114 | 29888 ft | 465 kts | 208° |
| 2026-05-01 08:21 | 44.09333 | 7.85033 | 29260 ft | 459 kts | 208° |
| 2026-05-01 08:21 | 44.06490 | 7.82926 | 28615 ft | 454 kts | 208° |
| 2026-05-01 08:21 | 44.03654 | 7.81181 | 27999 ft | 450 kts | 199° |
| 2026-05-01 08:22 | 44.00653 | 7.79802 | 27367 ft | 446 kts | 198° |
| 2026-05-01 08:22 | 43.97725 | 7.78425 | 26754 ft | 443 kts | 199° |
| 2026-05-01 08:22 | 43.94885 | 7.76964 | 26162 ft | 440 kts | 200° |
| 2026-05-01 08:22 | 43.91977 | 7.75515 | 25556 ft | 437 kts | 198° |
| 2026-05-01 08:23 | 43.89079 | 7.74303 | 24987 ft | 433 kts | 194° |
| 2026-05-01 08:23 | 43.86157 | 7.73340 | 24425 ft | 430 kts | 191° |
| 2026-05-01 08:23 | 43.83234 | 7.72565 | 23888 ft | 426 kts | 188° |
| 2026-05-01 08:23 | 43.80314 | 7.71934 | 23296 ft | 422 kts | 186° |
| 2026-05-01 08:24 | 43.77457 | 7.71438 | 22802 ft | 417 kts | 185° |
| 2026-05-01 08:24 | 43.74591 | 7.71073 | 22294 ft | 412 kts | 182° |
| 2026-05-01 08:24 | 43.71744 | 7.70858 | 21795 ft | 407 kts | 180° |
| 2026-05-01 08:24 | 43.68927 | 7.70794 | 21307 ft | 403 kts | 178° |
| 2026-05-01 08:25 | 43.66135 | 7.70851 | 20668 ft | 403 kts | 178° |
| 2026-05-01 08:25 | 43.63323 | 7.70700 | 20113 ft | 404 kts | 182° |
| 2026-05-01 08:25 | 43.60544 | 7.70242 | 19630 ft | 402 kts | 187° |
| 2026-05-01 08:25 | 43.57802 | 7.69487 | 19124 ft | 401 kts | 192° |
| 2026-05-01 08:26 | 43.55123 | 7.68431 | 18625 ft | 401 kts | 197° |
| 2026-05-01 08:26 | 43.52517 | 7.67080 | 18077 ft | 400 kts | 201° |
| 2026-05-01 08:26 | 43.50006 | 7.65460 | 17577 ft | 397 kts | 206° |
| 2026-05-01 08:26 | 43.47609 | 7.63584 | 17085 ft | 395 kts | 211° |
| 2026-05-01 08:27 | 43.45340 | 7.61473 | 16596 ft | 393 kts | 216° |
| 2026-05-01 08:27 | 43.43207 | 7.59138 | 16113 ft | 391 kts | 220° |
| 2026-05-01 08:27 | 43.41230 | 7.56593 | 15623 ft | 388 kts | 225° |
| 2026-05-01 08:27 | 43.39413 | 7.53865 | 15145 ft | 386 kts | 229° |
| 2026-05-01 08:28 | 43.37759 | 7.50977 | 14667 ft | 384 kts | 234° |
| 2026-05-01 08:28 | 43.36271 | 7.47947 | 14183 ft | 382 kts | 238° |
| 2026-05-01 08:28 | 43.34961 | 7.44791 | 13699 ft | 378 kts | 243° |
| 2026-05-01 08:28 | 43.33845 | 7.41546 | 13178 ft | 375 kts | 247° |
| 2026-05-01 08:29 | 43.32922 | 7.38250 | 12695 ft | 364 kts | 252° |
| 2026-05-01 08:29 | 43.32194 | 7.34980 | 12232 ft | 353 kts | 256° |
| 2026-05-01 08:29 | 43.31649 | 7.31737 | 11761 ft | 344 kts | 261° |
| 2026-05-01 08:29 | 43.31278 | 7.28536 | 11301 ft | 335 kts | 265° |
| 2026-05-01 08:30 | 43.31062 | 7.25351 | 10841 ft | 332 kts | 268° |
| 2026-05-01 08:30 | 43.30998 | 7.22243 | 10468 ft | 318 kts | 274° |
| 2026-05-01 08:30 | 43.31075 | 7.19287 | 10101 ft | 302 kts | 276° |
| 2026-05-01 08:30 | 43.31273 | 7.16457 | 9706 ft | 294 kts | 278° |
| 2026-05-01 08:31 | 43.31581 | 7.13735 | 9314 ft | 287 kts | 284° |
| 2026-05-01 08:31 | 43.32006 | 7.11056 | 8934 ft | 287 kts | 287° |
| 2026-05-01 08:31 | 43.32528 | 7.08420 | 8555 ft | 285 kts | 289° |
| 2026-05-01 08:31 | 43.33147 | 7.05847 | 8175 ft | 283 kts | 292° |
| 2026-05-01 08:32 | 43.33859 | 7.03375 | 7797 ft | 272 kts | 296° |
| 2026-05-01 08:32 | 43.34638 | 7.01067 | 7430 ft | 261 kts | 299° |
| 2026-05-01 08:32 | 43.35469 | 6.98902 | 7063 ft | 251 kts | 302° |
| 2026-05-01 08:32 | 43.36345 | 6.96870 | 6703 ft | 243 kts | 304° |
| 2026-05-01 08:33 | 43.37266 | 6.94935 | 6328 ft | 242 kts | 308° |
| 2026-05-01 08:33 | 43.38260 | 6.93051 | 5953 ft | 245 kts | 311° |
| 2026-05-01 08:33 | 43.39341 | 6.91250 | 5562 ft | 240 kts | 320° |
| 2026-05-01 08:33 | 43.40724 | 6.90136 | 5184 ft | 224 kts | 353° |
| 2026-05-01 08:34 | 43.42219 | 6.90037 | 4797 ft | 210 kts | 18° |
| 2026-05-01 08:34 | 43.43509 | 6.90793 | 4485 ft | 197 kts | 39° |
| 2026-05-01 08:34 | 43.44489 | 6.92065 | 4242 ft | 193 kts | 47° |
| 2026-05-01 08:34 | 43.45440 | 6.93389 | 4132 ft | 196 kts | 47° |
| 2026-05-01 08:35 | 43.46406 | 6.94717 | 4116 ft | 197 kts | 47° |
| 2026-05-01 08:35 | 43.47376 | 6.96044 | 4118 ft | 197 kts | 47° |
| 2026-05-01 08:35 | 43.48326 | 6.97338 | 4117 ft | 186 kts | 47° |
| 2026-05-01 08:35 | 43.49229 | 6.98568 | 4134 ft | 181 kts | 47° |
| 2026-05-01 08:36 | 43.50115 | 6.99778 | 4084 ft | 178 kts | 47° |
| 2026-05-01 08:36 | 43.50993 | 7.00976 | 3916 ft | 177 kts | 47° |
| 2026-05-01 08:36 | 43.51850 | 7.02145 | 3707 ft | 171 kts | 47° |
| 2026-05-01 08:36 | 43.52692 | 7.03295 | 3493 ft | 169 kts | 47° |
| 2026-05-01 08:37 | 43.53526 | 7.04434 | 3260 ft | 168 kts | 47° |
| 2026-05-01 08:37 | 43.54354 | 7.05565 | 3042 ft | 168 kts | 47° |
| 2026-05-01 08:37 | 43.55187 | 7.06703 | 2811 ft | 169 kts | 47° |
| 2026-05-01 08:37 | 43.56021 | 7.07840 | 2564 ft | 169 kts | 48° |
| 2026-05-01 08:38 | 43.56852 | 7.08971 | 2347 ft | 164 kts | 48° |
| 2026-05-01 08:38 | 43.57639 | 7.10044 | 2113 ft | 154 kts | 49° |
| 2026-05-01 08:38 | 43.58365 | 7.11052 | 1909 ft | 144 kts | 50° |
| 2026-05-01 08:38 | 43.59062 | 7.12014 | 1715 ft | 138 kts | 49° |
| 2026-05-01 08:39 | 43.59736 | 7.12931 | 1540 ft | 134 kts | 50° |
| 2026-05-01 08:39 | 43.60383 | 7.13818 | 1439 ft | 130 kts | 50° |
| 2026-05-01 08:39 | 43.61034 | 7.14711 | 1198 ft | 133 kts | 50° |
| 2026-05-01 08:39 | 43.61684 | 7.15601 | 1012 ft | 130 kts | 49° |
| 2026-05-01 08:40 | 43.62977 | 7.17375 | 675 ft | 133 kts | 49° |
| 2026-05-01 08:40 | 43.63631 | 7.18273 | 523 ft | 133 kts | 49° |
| 2026-05-01 08:40 | 43.64286 | 7.19167 | 332 ft | 132 kts | 49° |
| 2026-05-01 08:41 | 43.64929 | 7.20046 | 159 ft | 129 kts | 50° |
| 2026-05-01 08:41 | 43.65562 | 7.20917 | 32 ft | 122 kts | 50° |
| 2026-05-01 08:41 | 43.66074 | 7.21635 | 21 ft | 82 kts | 44° |
| 2026-05-01 08:41 | 43.66315 | 7.21942 | 24 ft | 25 kts | 37° |
| 2026-05-01 08:42 | 43.66467 | 7.22040 | 22 ft | 14 kts | 20° |
| 2026-05-01 08:42 | 43.66555 | 7.22027 | 22 ft | 13 kts | 318° |
| 2026-05-01 08:42 | 43.66615 | 7.21944 | 22 ft | 12 kts | 314° |
| 2026-05-01 08:42 | 43.66637 | 7.21853 | 22 ft | 10 kts | 246° |
| 2026-05-01 08:43 | 43.66591 | 7.21784 | 22 ft | 9 kts | 224° |
| 2026-05-01 08:43 | 43.66539 | 7.21714 | 22 ft | 12 kts | 224° |
| 2026-05-01 08:43 | 43.66481 | 7.21635 | 22 ft | 12 kts | 224° |
| 2026-05-01 08:43 | 43.66426 | 7.21560 | 22 ft | 11 kts | 225° |
| 2026-05-01 08:44 | 43.66374 | 7.21487 | 22 ft | 10 kts | 227° |
| 2026-05-01 08:44 | 43.66347 | 7.21384 | 22 ft | 10 kts | 261° |
| 2026-05-01 08:44 | 43.66351 | 7.21318 | 24 ft | 4 kts | 315° |
| 2026-05-01 08:44 | 43.66381 | 7.21304 | 22 ft | 6 kts | 349° |
| 2026-05-01 08:45 | 43.66411 | 7.21297 | 22 ft | 0 kts | 349° |